EGKL weather

Deanland Lewes Airport
Lewes, England, United Kingdom

Public forecast

Using degrees Celsius for public forecast. Weather courtesy of forecast.io.

METAR (pilot weather report)

Report is more than 6 hours old.

Closest report is Shoreham Airport, 17.4 nm (32.2 km) W. Retrieved 2018/07/18 18:50 UTC (8 hours ago):

EGKA 181850Z 21005KT CAVOK 19/14 Q1018

TAF (pilot weather forecast)

Forecast is more than 12 hours old.

Closest forecast is Shoreham Airport, 17.4 nm (32.2 km) W. Retrieved 2016/03/02 12:00 UTC (2 years ago):

TAF EGKA 021104Z 0212/0221 25015G25KT 9999 SCT020 TEMPO 0212/0216 25025G38KT 5000 SHRA BKN012CB PROB30 TEMPO 0212/0215 2500 +SHGS +SHRASN TEMPO 0216/0221 29025G35KT TEMPO 0218/0221 BKN014